sensor_id;sensor_type;location;lat;lon;timestamp;P1;durP1;ratioP1;P2;durP2;ratioP2
25359;SDS011;13311;51.386;0.016;2023-05-02T00:04:13;5.85;;;2.05;;
25359;SDS011;13311;51.386;0.016;2023-05-02T00:09:14;2.60;;;1.90;;
25359;SDS011;13311;51.386;0.016;2023-05-02T00:14:15;2.78;;;2.08;;
25359;SDS011;13311;51.386;0.016;2023-05-02T00:19:16;2.47;;;1.63;;
25359;SDS011;13311;51.386;0.016;2023-05-02T00:24:16;2.67;;;1.85;;
25359;SDS011;13311;51.386;0.016;2023-05-02T00:29:18;6.65;;;2.17;;
25359;SDS011;13311;51.386;0.016;2023-05-02T00:34:18;5.22;;;2.83;;
25359;SDS011;13311;51.386;0.016;2023-05-02T00:39:19;3.67;;;1.92;;
25359;SDS011;13311;51.386;0.016;2023-05-02T00:44:20;2.88;;;1.90;;
25359;SDS011;13311;51.386;0.016;2023-05-02T00:49:21;2.95;;;2.10;;
25359;SDS011;13311;51.386;0.016;2023-05-02T00:54:22;2.42;;;1.92;;
25359;SDS011;13311;51.386;0.016;2023-05-02T00:59:23;2.95;;;1.92;;
25359;SDS011;13311;51.386;0.016;2023-05-02T01:04:34;3.63;;;2.15;;
25359;SDS011;13311;51.386;0.016;2023-05-02T01:15:01;3.08;;;2.17;;
25359;SDS011;13311;51.386;0.016;2023-05-02T01:20:14;5.90;;;2.78;;
25359;SDS011;13311;51.386;0.016;2023-05-02T01:30:44;5.85;;;3.75;;
25359;SDS011;13311;51.386;0.016;2023-05-02T01:35:46;8.98;;;3.80;;
25359;SDS011;13311;51.386;0.016;2023-05-02T01:40:50;6.47;;;3.35;;
25359;SDS011;13311;51.386;0.016;2023-05-02T01:45:52;4.40;;;3.40;;
25359;SDS011;13311;51.386;0.016;2023-05-02T01:50:55;6.10;;;4.03;;
25359;SDS011;13311;51.386;0.016;2023-05-02T01:55:57;5.15;;;3.85;;
25359;SDS011;13311;51.386;0.016;2023-05-02T02:00:59;7.88;;;4.80;;
25359;SDS011;13311;51.386;0.016;2023-05-02T02:06:00;8.25;;;4.53;;
25359;SDS011;13311;51.386;0.016;2023-05-02T02:11:03;7.43;;;6.18;;
25359;SDS011;13311;51.386;0.016;2023-05-02T02:16:11;8.63;;;6.60;;
25359;SDS011;13311;51.386;0.016;2023-05-02T02:21:19;9.80;;;7.95;;
25359;SDS011;13311;51.386;0.016;2023-05-02T02:26:21;14.35;;;9.40;;
25359;SDS011;13311;51.386;0.016;2023-05-02T02:31:22;15.13;;;9.23;;
25359;SDS011;13311;51.386;0.016;2023-05-02T02:36:28;14.95;;;8.77;;
25359;SDS011;13311;51.386;0.016;2023-05-02T02:41:44;11.15;;;8.30;;
25359;SDS011;13311;51.386;0.016;2023-05-02T02:57:32;14.80;;;8.30;;
25359;SDS011;13311;51.386;0.016;2023-05-02T03:02:53;12.75;;;9.52;;
25359;SDS011;13311;51.386;0.016;2023-05-02T03:07:55;14.57;;;9.05;;
25359;SDS011;13311;51.386;0.016;2023-05-02T03:12:59;14.95;;;9.90;;
25359;SDS011;13311;51.386;0.016;2023-05-02T03:18:00;19.70;;;11.60;;
25359;SDS011;13311;51.386;0.016;2023-05-02T03:23:01;20.48;;;13.35;;
25359;SDS011;13311;51.386;0.016;2023-05-02T03:28:02;20.35;;;13.70;;
25359;SDS011;13311;51.386;0.016;2023-05-02T03:33:02;21.38;;;13.20;;
25359;SDS011;13311;51.386;0.016;2023-05-02T03:38:06;19.00;;;13.65;;
25359;SDS011;13311;51.386;0.016;2023-05-02T03:43:08;20.95;;;13.27;;
25359;SDS011;13311;51.386;0.016;2023-05-02T03:48:08;19.95;;;13.07;;
25359;SDS011;13311;51.386;0.016;2023-05-02T03:53:09;22.55;;;15.23;;
25359;SDS011;13311;51.386;0.016;2023-05-02T03:58:10;23.88;;;14.90;;
25359;SDS011;13311;51.386;0.016;2023-05-02T04:03:11;23.15;;;15.35;;
25359;SDS011;13311;51.386;0.016;2023-05-02T04:08:11;27.40;;;15.95;;
25359;SDS011;13311;51.386;0.016;2023-05-02T04:13:12;26.65;;;15.98;;
25359;SDS011;13311;51.386;0.016;2023-05-02T04:18:13;25.02;;;16.25;;
25359;SDS011;13311;51.386;0.016;2023-05-02T04:23:14;24.88;;;15.85;;
25359;SDS011;13311;51.386;0.016;2023-05-02T04:28:15;28.98;;;17.15;;
25359;SDS011;13311;51.386;0.016;2023-05-02T04:33:16;22.17;;;16.00;;
25359;SDS011;13311;51.386;0.016;2023-05-02T04:38:17;23.80;;;15.85;;
25359;SDS011;13311;51.386;0.016;2023-05-02T04:43:18;24.25;;;14.25;;
25359;SDS011;13311;51.386;0.016;2023-05-02T04:48:18;24.15;;;14.70;;
25359;SDS011;13311;51.386;0.016;2023-05-02T04:53:21;20.08;;;13.70;;
25359;SDS011;13311;51.386;0.016;2023-05-02T04:58:22;20.00;;;13.20;;
25359;SDS011;13311;51.386;0.016;2023-05-02T05:03:23;17.27;;;12.10;;
25359;SDS011;13311;51.386;0.016;2023-05-02T05:08:24;14.25;;;8.55;;
25359;SDS011;13311;51.386;0.016;2023-05-02T05:13:25;16.55;;;8.60;;
25359;SDS011;13311;51.386;0.016;2023-05-02T05:18:27;11.05;;;6.40;;
25359;SDS011;13311;51.386;0.016;2023-05-02T05:23:28;7.78;;;6.00;;
25359;SDS011;13311;51.386;0.016;2023-05-02T05:28:28;9.80;;;5.22;;
25359;SDS011;13311;51.386;0.016;2023-05-02T05:33:29;9.68;;;5.38;;
25359;SDS011;13311;51.386;0.016;2023-05-02T05:38:30;11.82;;;6.28;;
25359;SDS011;13311;51.386;0.016;2023-05-02T05:43:31;7.97;;;5.65;;
25359;SDS011;13311;51.386;0.016;2023-05-02T05:48:32;11.75;;;6.85;;
25359;SDS011;13311;51.386;0.016;2023-05-02T05:53:33;10.48;;;5.78;;
25359;SDS011;13311;51.386;0.016;2023-05-02T05:58:34;8.00;;;5.20;;
25359;SDS011;13311;51.386;0.016;2023-05-02T06:03:35;9.45;;;4.90;;
25359;SDS011;13311;51.386;0.016;2023-05-02T06:08:36;5.97;;;4.45;;
25359;SDS011;13311;51.386;0.016;2023-05-02T06:13:37;8.88;;;4.50;;
25359;SDS011;13311;51.386;0.016;2023-05-02T06:18:38;8.88;;;4.80;;
25359;SDS011;13311;51.386;0.016;2023-05-02T06:23:38;8.30;;;4.50;;
25359;SDS011;13311;51.386;0.016;2023-05-02T06:28:39;8.32;;;4.65;;
25359;SDS011;13311;51.386;0.016;2023-05-02T06:33:40;9.73;;;5.20;;
25359;SDS011;13311;51.386;0.016;2023-05-02T06:38:41;10.55;;;6.55;;
25359;SDS011;13311;51.386;0.016;2023-05-02T06:43:42;11.93;;;6.50;;
25359;SDS011;13311;51.386;0.016;2023-05-02T06:48:43;12.57;;;6.82;;
25359;SDS011;13311;51.386;0.016;2023-05-02T06:53:44;11.27;;;7.28;;
25359;SDS011;13311;51.386;0.016;2023-05-02T06:58:44;12.40;;;6.28;;
25359;SDS011;13311;51.386;0.016;2023-05-02T07:03:45;11.13;;;6.90;;
25359;SDS011;13311;51.386;0.016;2023-05-02T07:08:46;18.17;;;7.93;;
25359;SDS011;13311;51.386;0.016;2023-05-02T07:13:47;9.48;;;6.97;;
25359;SDS011;13311;51.386;0.016;2023-05-02T07:18:48;16.63;;;7.93;;
25359;SDS011;13311;51.386;0.016;2023-05-02T07:23:48;12.00;;;7.20;;
25359;SDS011;13311;51.386;0.016;2023-05-02T07:28:49;18.17;;;8.63;;
25359;SDS011;13311;51.386;0.016;2023-05-02T07:33:50;13.75;;;6.68;;
25359;SDS011;13311;51.386;0.016;2023-05-02T07:38:51;13.95;;;7.80;;
25359;SDS011;13311;51.386;0.016;2023-05-02T07:43:51;13.15;;;7.32;;
25359;SDS011;13311;51.386;0.016;2023-05-02T07:48:52;15.57;;;7.05;;
25359;SDS011;13311;51.386;0.016;2023-05-02T07:53:54;16.38;;;7.97;;
25359;SDS011;13311;51.386;0.016;2023-05-02T07:58:57;21.33;;;8.05;;
25359;SDS011;13311;51.386;0.016;2023-05-02T08:03:58;19.05;;;7.60;;
25359;SDS011;13311;51.386;0.016;2023-05-02T08:08:58;18.42;;;6.90;;
25359;SDS011;13311;51.386;0.016;2023-05-02T08:14:00;18.42;;;6.03;;
25359;SDS011;13311;51.386;0.016;2023-05-02T08:19:01;24.15;;;5.22;;
25359;SDS011;13311;51.386;0.016;2023-05-02T08:24:02;19.85;;;5.57;;
25359;SDS011;13311;51.386;0.016;2023-05-02T08:29:03;10.40;;;4.30;;
25359;SDS011;13311;51.386;0.016;2023-05-02T08:34:04;13.65;;;4.60;;
25359;SDS011;13311;51.386;0.016;2023-05-02T08:39:04;9.95;;;3.97;;
25359;SDS011;13311;51.386;0.016;2023-05-02T08:44:07;9.45;;;3.22;;
25359;SDS011;13311;51.386;0.016;2023-05-02T08:49:10;9.23;;;2.45;;
25359;SDS011;13311;51.386;0.016;2023-05-02T08:54:15;15.95;;;3.75;;
25359;SDS011;13311;51.386;0.016;2023-05-02T08:59:16;13.70;;;3.60;;
25359;SDS011;13311;51.386;0.016;2023-05-02T09:04:22;16.38;;;3.40;;
25359;SDS011;13311;51.386;0.016;2023-05-02T09:09:23;10.90;;;2.65;;
25359;SDS011;13311;51.386;0.016;2023-05-02T09:14:25;9.60;;;1.90;;
25359;SDS011;13311;51.386;0.016;2023-05-02T09:19:26;6.90;;;2.47;;
25359;SDS011;13311;51.386;0.016;2023-05-02T09:24:29;10.43;;;3.38;;
25359;SDS011;13311;51.386;0.016;2023-05-02T09:29:30;9.48;;;2.03;;
25359;SDS011;13311;51.386;0.016;2023-05-02T09:34:36;12.35;;;3.13;;
25359;SDS011;13311;51.386;0.016;2023-05-02T09:39:38;7.50;;;2.80;;
25359;SDS011;13311;51.386;0.016;2023-05-02T09:44:39;6.80;;;2.40;;
25359;SDS011;13311;51.386;0.016;2023-05-02T09:49:41;10.05;;;3.03;;
25359;SDS011;13311;51.386;0.016;2023-05-02T09:54:44;8.27;;;2.53;;
25359;SDS011;13311;51.386;0.016;2023-05-02T09:59:53;15.00;;;2.22;;
25359;SDS011;13311;51.386;0.016;2023-05-02T10:04:56;9.63;;;2.08;;
25359;SDS011;13311;51.386;0.016;2023-05-02T10:09:57;9.10;;;2.65;;
25359;SDS011;13311;51.386;0.016;2023-05-02T10:15:02;10.85;;;2.47;;
25359;SDS011;13311;51.386;0.016;2023-05-02T10:20:05;11.82;;;3.50;;
25359;SDS011;13311;51.386;0.016;2023-05-02T10:25:07;6.28;;;2.65;;
25359;SDS011;13311;51.386;0.016;2023-05-02T10:30:08;12.40;;;2.42;;
25359;SDS011;13311;51.386;0.016;2023-05-02T10:35:12;10.35;;;2.88;;
25359;SDS011;13311;51.386;0.016;2023-05-02T10:40:14;5.82;;;2.22;;
25359;SDS011;13311;51.386;0.016;2023-05-02T10:45:31;6.10;;;2.50;;
25359;SDS011;13311;51.386;0.016;2023-05-02T10:56:06;8.48;;;2.40;;
25359;SDS011;13311;51.386;0.016;2023-05-02T11:06:26;10.68;;;2.55;;
25359;SDS011;13311;51.386;0.016;2023-05-02T11:37:57;6.65;;;1.98;;
25359;SDS011;13311;51.386;0.016;2023-05-02T11:43:13;9.33;;;2.10;;
25359;SDS011;13311;51.386;0.016;2023-05-02T11:48:17;10.25;;;2.55;;
25359;SDS011;13311;51.386;0.016;2023-05-02T11:53:20;9.75;;;2.92;;
25359;SDS011;13311;51.386;0.016;2023-05-02T11:58:28;5.75;;;2.05;;
25359;SDS011;13311;51.386;0.016;2023-05-02T12:03:33;7.75;;;2.50;;
25359;SDS011;13311;51.386;0.016;2023-05-02T12:08:34;4.40;;;2.13;;
25359;SDS011;13311;51.386;0.016;2023-05-02T12:13:36;11.85;;;2.65;;
25359;SDS011;13311;51.386;0.016;2023-05-02T12:18:48;11.27;;;2.90;;
25359;SDS011;13311;51.386;0.016;2023-05-02T12:23:49;8.30;;;2.83;;
25359;SDS011;13311;51.386;0.016;2023-05-02T12:28:50;6.97;;;2.83;;
25359;SDS011;13311;51.386;0.016;2023-05-02T12:33:58;9.57;;;3.28;;
25359;SDS011;13311;51.386;0.016;2023-05-02T12:39:00;9.00;;;2.85;;
25359;SDS011;13311;51.386;0.016;2023-05-02T12:44:02;8.43;;;2.85;;
25359;SDS011;13311;51.386;0.016;2023-05-02T12:49:04;5.55;;;2.88;;
25359;SDS011;13311;51.386;0.016;2023-05-02T12:54:18;12.30;;;2.75;;
25359;SDS011;13311;51.386;0.016;2023-05-02T12:59:26;8.90;;;3.35;;
25359;SDS011;13311;51.386;0.016;2023-05-02T13:04:35;6.55;;;2.75;;
25359;SDS011;13311;51.386;0.016;2023-05-02T13:09:41;7.63;;;3.10;;
25359;SDS011;13311;51.386;0.016;2023-05-02T13:14:41;11.25;;;2.90;;
25359;SDS011;13311;51.386;0.016;2023-05-02T13:19:42;6.13;;;2.40;;
25359;SDS011;13311;51.386;0.016;2023-05-02T13:24:43;8.48;;;3.22;;
25359;SDS011;13311;51.386;0.016;2023-05-02T13:29:45;9.35;;;2.60;;
25359;SDS011;13311;51.386;0.016;2023-05-02T13:34:48;11.25;;;3.75;;
25359;SDS011;13311;51.386;0.016;2023-05-02T13:39:48;6.63;;;2.22;;
25359;SDS011;13311;51.386;0.016;2023-05-02T13:44:49;9.88;;;3.30;;
25359;SDS011;13311;51.386;0.016;2023-05-02T13:49:50;7.97;;;2.53;;
25359;SDS011;13311;51.386;0.016;2023-05-02T13:54:51;8.85;;;2.85;;
25359;SDS011;13311;51.386;0.016;2023-05-02T13:59:52;8.65;;;3.08;;
25359;SDS011;13311;51.386;0.016;2023-05-02T14:04:52;9.68;;;2.22;;
25359;SDS011;13311;51.386;0.016;2023-05-02T14:09:53;12.65;;;2.88;;
25359;SDS011;13311;51.386;0.016;2023-05-02T14:14:54;7.10;;;2.95;;
25359;SDS011;13311;51.386;0.016;2023-05-02T14:19:54;12.55;;;3.13;;
25359;SDS011;13311;51.386;0.016;2023-05-02T14:24:55;9.27;;;2.42;;
25359;SDS011;13311;51.386;0.016;2023-05-02T14:29:56;8.82;;;2.45;;
25359;SDS011;13311;51.386;0.016;2023-05-02T14:34:57;17.30;;;4.25;;
25359;SDS011;13311;51.386;0.016;2023-05-02T14:39:58;9.45;;;2.75;;
25359;SDS011;13311;51.386;0.016;2023-05-02T14:44:58;9.40;;;3.63;;
25359;SDS011;13311;51.386;0.016;2023-05-02T14:50:01;8.88;;;2.78;;
25359;SDS011;13311;51.386;0.016;2023-05-02T14:55:03;9.60;;;3.55;;
25359;SDS011;13311;51.386;0.016;2023-05-02T15:00:05;12.50;;;3.38;;
25359;SDS011;13311;51.386;0.016;2023-05-02T15:05:06;9.18;;;3.13;;
25359;SDS011;13311;51.386;0.016;2023-05-02T15:10:10;5.95;;;3.53;;
25359;SDS011;13311;51.386;0.016;2023-05-02T15:15:12;8.70;;;2.83;;
25359;SDS011;13311;51.386;0.016;2023-05-02T15:20:13;10.82;;;3.08;;
25359;SDS011;13311;51.386;0.016;2023-05-02T15:25:14;13.52;;;3.53;;
25359;SDS011;13311;51.386;0.016;2023-05-02T15:30:15;6.40;;;2.88;;
25359;SDS011;13311;51.386;0.016;2023-05-02T15:35:16;11.95;;;3.33;;
25359;SDS011;13311;51.386;0.016;2023-05-02T15:40:17;8.75;;;3.05;;
25359;SDS011;13311;51.386;0.016;2023-05-02T15:45:18;13.57;;;3.72;;
25359;SDS011;13311;51.386;0.016;2023-05-02T15:50:19;9.10;;;2.72;;
25359;SDS011;13311;51.386;0.016;2023-05-02T15:55:21;9.27;;;2.55;;
25359;SDS011;13311;51.386;0.016;2023-05-02T16:00:22;11.27;;;3.90;;
25359;SDS011;13311;51.386;0.016;2023-05-02T16:05:23;8.77;;;2.75;;
25359;SDS011;13311;51.386;0.016;2023-05-02T16:10:23;14.88;;;3.80;;
25359;SDS011;13311;51.386;0.016;2023-05-02T16:15:24;7.90;;;2.53;;
25359;SDS011;13311;51.386;0.016;2023-05-02T16:20:25;9.57;;;2.83;;
25359;SDS011;13311;51.386;0.016;2023-05-02T16:25:27;15.13;;;3.72;;
25359;SDS011;13311;51.386;0.016;2023-05-02T16:30:28;7.72;;;2.97;;
25359;SDS011;13311;51.386;0.016;2023-05-02T16:35:29;6.97;;;2.85;;
25359;SDS011;13311;51.386;0.016;2023-05-02T16:40:30;9.07;;;3.33;;
25359;SDS011;13311;51.386;0.016;2023-05-02T16:45:31;9.07;;;2.90;;
25359;SDS011;13311;51.386;0.016;2023-05-02T16:50:32;9.57;;;3.15;;
25359;SDS011;13311;51.386;0.016;2023-05-02T16:55:33;12.00;;;2.70;;
25359;SDS011;13311;51.386;0.016;2023-05-02T17:00:33;7.30;;;2.60;;
25359;SDS011;13311;51.386;0.016;2023-05-02T17:05:34;6.75;;;2.88;;
25359;SDS011;13311;51.386;0.016;2023-05-02T17:10:35;6.97;;;2.80;;
25359;SDS011;13311;51.386;0.016;2023-05-02T17:15:36;8.18;;;2.28;;
25359;SDS011;13311;51.386;0.016;2023-05-02T17:20:37;7.28;;;2.00;;
25359;SDS011;13311;51.386;0.016;2023-05-02T17:25:38;7.18;;;1.67;;
25359;SDS011;13311;51.386;0.016;2023-05-02T17:30:40;4.60;;;1.73;;
25359;SDS011;13311;51.386;0.016;2023-05-02T17:35:42;5.38;;;1.67;;
25359;SDS011;13311;51.386;0.016;2023-05-02T17:40:43;9.60;;;2.30;;
25359;SDS011;13311;51.386;0.016;2023-05-02T17:45:43;8.15;;;2.17;;
25359;SDS011;13311;51.386;0.016;2023-05-02T17:50:44;8.23;;;1.77;;
25359;SDS011;13311;51.386;0.016;2023-05-02T17:55:45;5.80;;;2.13;;
25359;SDS011;13311;51.386;0.016;2023-05-02T18:00:46;6.70;;;2.30;;
25359;SDS011;13311;51.386;0.016;2023-05-02T18:05:47;6.80;;;2.20;;
25359;SDS011;13311;51.386;0.016;2023-05-02T18:10:47;8.23;;;2.60;;
25359;SDS011;13311;51.386;0.016;2023-05-02T18:15:58;6.28;;;2.17;;
25359;SDS011;13311;51.386;0.016;2023-05-02T18:21:03;6.70;;;2.70;;
25359;SDS011;13311;51.386;0.016;2023-05-02T18:26:10;7.15;;;2.17;;
25359;SDS011;13311;51.386;0.016;2023-05-02T18:31:15;5.50;;;2.00;;
25359;SDS011;13311;51.386;0.016;2023-05-02T18:36:22;7.35;;;2.55;;
25359;SDS011;13311;51.386;0.016;2023-05-02T18:41:25;13.02;;;3.30;;
25359;SDS011;13311;51.386;0.016;2023-05-02T18:46:26;8.05;;;2.95;;
25359;SDS011;13311;51.386;0.016;2023-05-02T18:51:27;5.82;;;2.65;;
25359;SDS011;13311;51.386;0.016;2023-05-02T18:56:28;7.55;;;2.97;;
25359;SDS011;13311;51.386;0.016;2023-05-02T19:01:28;9.02;;;4.03;;
25359;SDS011;13311;51.386;0.016;2023-05-02T19:06:29;11.45;;;5.05;;
25359;SDS011;13311;51.386;0.016;2023-05-02T19:11:30;14.68;;;4.20;;
25359;SDS011;13311;51.386;0.016;2023-05-02T19:16:31;13.15;;;3.88;;
25359;SDS011;13311;51.386;0.016;2023-05-02T19:21:33;10.18;;;3.60;;
25359;SDS011;13311;51.386;0.016;2023-05-02T19:26:35;9.00;;;4.53;;
25359;SDS011;13311;51.386;0.016;2023-05-02T19:31:35;9.63;;;4.30;;
25359;SDS011;13311;51.386;0.016;2023-05-02T19:36:37;7.75;;;3.72;;
25359;SDS011;13311;51.386;0.016;2023-05-02T19:41:38;10.95;;;3.83;;
25359;SDS011;13311;51.386;0.016;2023-05-02T19:46:41;11.95;;;4.15;;
25359;SDS011;13311;51.386;0.016;2023-05-02T19:51:42;13.93;;;3.70;;
25359;SDS011;13311;51.386;0.016;2023-05-02T19:56:43;10.15;;;4.28;;
25359;SDS011;13311;51.386;0.016;2023-05-02T20:01:47;13.90;;;4.85;;
25359;SDS011;13311;51.386;0.016;2023-05-02T20:06:49;10.38;;;4.30;;
25359;SDS011;13311;51.386;0.016;2023-05-02T20:11:50;8.38;;;4.30;;
25359;SDS011;13311;51.386;0.016;2023-05-02T20:16:51;16.35;;;5.53;;
25359;SDS011;13311;51.386;0.016;2023-05-02T20:21:54;11.55;;;3.60;;
25359;SDS011;13311;51.386;0.016;2023-05-02T20:26:55;8.93;;;4.43;;
25359;SDS011;13311;51.386;0.016;2023-05-02T20:31:56;10.75;;;4.38;;
25359;SDS011;13311;51.386;0.016;2023-05-02T20:36:58;10.57;;;5.30;;
25359;SDS011;13311;51.386;0.016;2023-05-02T20:42:00;9.70;;;5.15;;
25359;SDS011;13311;51.386;0.016;2023-05-02T20:47:03;13.85;;;4.43;;
25359;SDS011;13311;51.386;0.016;2023-05-02T20:52:03;12.32;;;4.72;;
25359;SDS011;13311;51.386;0.016;2023-05-02T20:57:05;13.43;;;4.95;;
25359;SDS011;13311;51.386;0.016;2023-05-02T21:02:06;9.95;;;4.60;;
25359;SDS011;13311;51.386;0.016;2023-05-02T21:07:07;6.55;;;4.10;;
25359;SDS011;13311;51.386;0.016;2023-05-02T21:12:08;9.85;;;4.25;;
25359;SDS011;13311;51.386;0.016;2023-05-02T21:17:08;9.27;;;4.43;;
25359;SDS011;13311;51.386;0.016;2023-05-02T21:22:09;21.67;;;6.38;;
25359;SDS011;13311;51.386;0.016;2023-05-02T21:27:10;15.00;;;7.13;;
25359;SDS011;13311;51.386;0.016;2023-05-02T21:32:11;16.52;;;6.40;;
25359;SDS011;13311;51.386;0.016;2023-05-02T21:37:11;10.77;;;4.90;;
25359;SDS011;13311;51.386;0.016;2023-05-02T21:42:12;11.60;;;4.90;;
25359;SDS011;13311;51.386;0.016;2023-05-02T21:47:13;11.10;;;4.60;;
25359;SDS011;13311;51.386;0.016;2023-05-02T21:52:14;10.25;;;4.60;;
25359;SDS011;13311;51.386;0.016;2023-05-02T21:57:14;11.10;;;4.78;;
25359;SDS011;13311;51.386;0.016;2023-05-02T22:02:15;11.02;;;4.38;;
25359;SDS011;13311;51.386;0.016;2023-05-02T22:07:16;10.70;;;4.20;;
25359;SDS011;13311;51.386;0.016;2023-05-02T22:12:17;8.50;;;4.25;;
25359;SDS011;13311;51.386;0.016;2023-05-02T22:17:19;12.45;;;4.25;;
25359;SDS011;13311;51.386;0.016;2023-05-02T22:22:21;14.48;;;4.80;;
25359;SDS011;13311;51.386;0.016;2023-05-02T22:27:22;12.23;;;4.40;;
25359;SDS011;13311;51.386;0.016;2023-05-02T22:32:23;10.35;;;5.18;;
25359;SDS011;13311;51.386;0.016;2023-05-02T22:37:23;14.43;;;5.18;;
25359;SDS011;13311;51.386;0.016;2023-05-02T22:42:24;10.63;;;4.15;;
25359;SDS011;13311;51.386;0.016;2023-05-02T22:47:25;12.60;;;4.30;;
25359;SDS011;13311;51.386;0.016;2023-05-02T22:52:27;9.98;;;4.95;;
25359;SDS011;13311;51.386;0.016;2023-05-02T22:57:28;13.05;;;5.38;;
25359;SDS011;13311;51.386;0.016;2023-05-02T23:02:30;9.27;;;5.78;;
25359;SDS011;13311;51.386;0.016;2023-05-02T23:07:31;15.85;;;5.72;;
25359;SDS011;13311;51.386;0.016;2023-05-02T23:12:32;11.98;;;4.47;;
25359;SDS011;13311;51.386;0.016;2023-05-02T23:17:39;12.43;;;4.85;;
25359;SDS011;13311;51.386;0.016;2023-05-02T23:22:44;10.52;;;4.07;;
25359;SDS011;13311;51.386;0.016;2023-05-02T23:27:45;8.40;;;4.18;;
25359;SDS011;13311;51.386;0.016;2023-05-02T23:32:46;10.10;;;4.90;;
25359;SDS011;13311;51.386;0.016;2023-05-02T23:37:47;11.73;;;4.68;;
25359;SDS011;13311;51.386;0.016;2023-05-02T23:42:48;9.18;;;5.20;;
25359;SDS011;13311;51.386;0.016;2023-05-02T23:47:49;10.63;;;4.72;;
25359;SDS011;13311;51.386;0.016;2023-05-02T23:52:49;6.13;;;4.72;;
25359;SDS011;13311;51.386;0.016;2023-05-02T23:57:50;8.35;;;4.80;;
